sensor_id;sensor_type;location;lat;lon;timestamp;P1;durP1;ratioP1;P2;durP2;ratioP2
9972;SDS011;5027;53.560;10.062;2022-11-15T00:01:06;22.07;;;19.77;;
9972;SDS011;5027;53.560;10.062;2022-11-15T00:03:52;22.73;;;20.37;;
9972;SDS011;5027;53.560;10.062;2022-11-15T00:06:38;21.87;;;19.17;;
9972;SDS011;5027;53.560;10.062;2022-11-15T00:09:23;21.83;;;19.70;;
9972;SDS011;5027;53.560;10.062;2022-11-15T00:12:09;21.97;;;19.40;;
9972;SDS011;5027;53.560;10.062;2022-11-15T00:14:54;21.17;;;19.03;;
9972;SDS011;5027;53.560;10.062;2022-11-15T00:17:39;23.57;;;21.07;;
9972;SDS011;5027;53.560;10.062;2022-11-15T00:20:25;22.00;;;19.80;;
9972;SDS011;5027;53.560;10.062;2022-11-15T00:23:10;20.67;;;18.60;;
9972;SDS011;5027;53.560;10.062;2022-11-15T00:25:56;21.03;;;18.93;;
9972;SDS011;5027;53.560;10.062;2022-11-15T00:28:43;20.07;;;18.07;;
9972;SDS011;5027;53.560;10.062;2022-11-15T00:31:28;20.97;;;18.77;;
9972;SDS011;5027;53.560;10.062;2022-11-15T00:34:14;28.17;;;24.80;;
9972;SDS011;5027;53.560;10.062;2022-11-15T00:36:59;20.17;;;18.17;;
9972;SDS011;5027;53.560;10.062;2022-11-15T00:39:44;20.33;;;18.17;;
9972;SDS011;5027;53.560;10.062;2022-11-15T00:42:32;19.83;;;17.83;;
9972;SDS011;5027;53.560;10.062;2022-11-15T00:45:17;20.87;;;18.67;;
9972;SDS011;5027;53.560;10.062;2022-11-15T00:48:03;20.90;;;18.77;;
9972;SDS011;5027;53.560;10.062;2022-11-15T00:50:51;20.33;;;18.33;;
9972;SDS011;5027;53.560;10.062;2022-11-15T00:53:36;19.30;;;17.33;;
9972;SDS011;5027;53.560;10.062;2022-11-15T00:56:21;20.03;;;18.03;;
9972;SDS011;5027;53.560;10.062;2022-11-15T00:59:07;20.33;;;18.30;;
9972;SDS011;5027;53.560;10.062;2022-11-15T01:01:52;21.37;;;19.13;;
9972;SDS011;5027;53.560;10.062;2022-11-15T01:04:37;20.77;;;18.77;;
9972;SDS011;5027;53.560;10.062;2022-11-15T01:07:23;20.83;;;18.20;;
9972;SDS011;5027;53.560;10.062;2022-11-15T01:10:08;23.70;;;21.30;;
9972;SDS011;5027;53.560;10.062;2022-11-15T01:12:53;22.03;;;19.53;;
9972;SDS011;5027;53.560;10.062;2022-11-15T01:15:39;21.20;;;18.93;;
9972;SDS011;5027;53.560;10.062;2022-11-15T01:18:25;21.43;;;19.23;;
9972;SDS011;5027;53.560;10.062;2022-11-15T01:21:15;21.43;;;18.73;;
9972;SDS011;5027;53.560;10.062;2022-11-15T01:24:01;20.97;;;18.90;;
9972;SDS011;5027;53.560;10.062;2022-11-15T01:26:47;20.10;;;18.07;;
9972;SDS011;5027;53.560;10.062;2022-11-15T01:29:32;20.43;;;18.27;;
9972;SDS011;5027;53.560;10.062;2022-11-15T01:32:18;20.23;;;18.17;;
9972;SDS011;5027;53.560;10.062;2022-11-15T01:35:03;20.10;;;18.10;;
9972;SDS011;5027;53.560;10.062;2022-11-15T01:37:49;20.17;;;18.23;;
9972;SDS011;5027;53.560;10.062;2022-11-15T01:40:34;20.10;;;18.00;;
9972;SDS011;5027;53.560;10.062;2022-11-15T01:43:24;20.93;;;18.83;;
9972;SDS011;5027;53.560;10.062;2022-11-15T01:46:25;25.33;;;19.77;;
9972;SDS011;5027;53.560;10.062;2022-11-15T01:49:15;20.00;;;18.00;;
9972;SDS011;5027;53.560;10.062;2022-11-15T01:52:05;20.20;;;18.10;;
9972;SDS011;5027;53.560;10.062;2022-11-15T01:54:56;20.73;;;18.63;;
9972;SDS011;5027;53.560;10.062;2022-11-15T01:57:57;23.40;;;19.00;;
9972;SDS011;5027;53.560;10.062;2022-11-15T02:00:46;21.47;;;19.20;;
9972;SDS011;5027;53.560;10.062;2022-11-15T02:03:43;20.33;;;18.13;;
9972;SDS011;5027;53.560;10.062;2022-11-15T02:06:36;21.70;;;19.40;;
9972;SDS011;5027;53.560;10.062;2022-11-15T02:09:23;20.67;;;18.60;;
9972;SDS011;5027;53.560;10.062;2022-11-15T02:12:09;18.67;;;16.77;;
9972;SDS011;5027;53.560;10.062;2022-11-15T02:14:56;20.03;;;18.03;;
9972;SDS011;5027;53.560;10.062;2022-11-15T02:21:11;20.10;;;17.90;;
9972;SDS011;5027;53.560;10.062;2022-11-15T02:24:10;19.10;;;17.07;;
9972;SDS011;5027;53.560;10.062;2022-11-15T02:27:40;18.93;;;16.97;;
9972;SDS011;5027;53.560;10.062;2022-11-15T02:30:45;19.87;;;17.77;;
9972;SDS011;5027;53.560;10.062;2022-11-15T02:33:58;19.63;;;17.53;;
9972;SDS011;5027;53.560;10.062;2022-11-15T02:40:03;21.60;;;17.37;;
9972;SDS011;5027;53.560;10.062;2022-11-15T02:42:56;19.70;;;17.67;;
9972;SDS011;5027;53.560;10.062;2022-11-15T02:46:07;18.73;;;16.80;;
9972;SDS011;5027;53.560;10.062;2022-11-15T02:49:02;17.83;;;16.03;;
9972;SDS011;5027;53.560;10.062;2022-11-15T02:51:47;19.03;;;17.13;;
9972;SDS011;5027;53.560;10.062;2022-11-15T02:54:34;18.30;;;16.50;;
9972;SDS011;5027;53.560;10.062;2022-11-15T02:57:22;18.40;;;16.53;;
9972;SDS011;5027;53.560;10.062;2022-11-15T03:00:32;17.87;;;16.07;;
9972;SDS011;5027;53.560;10.062;2022-11-15T03:03:30;18.20;;;16.37;;
9972;SDS011;5027;53.560;10.062;2022-11-15T03:09:33;17.67;;;16.00;;
9972;SDS011;5027;53.560;10.062;2022-11-15T03:15:38;17.53;;;15.80;;
9972;SDS011;5027;53.560;10.062;2022-11-15T03:18:38;18.57;;;16.67;;
9972;SDS011;5027;53.560;10.062;2022-11-15T03:21:28;18.47;;;16.57;;
9972;SDS011;5027;53.560;10.062;2022-11-15T03:24:15;16.77;;;15.03;;
9972;SDS011;5027;53.560;10.062;2022-11-15T03:27:09;17.90;;;15.83;;
9972;SDS011;5027;53.560;10.062;2022-11-15T03:30:00;16.97;;;15.13;;
9972;SDS011;5027;53.560;10.062;2022-11-15T03:32:52;16.60;;;14.90;;
9972;SDS011;5027;53.560;10.062;2022-11-15T03:35:40;15.43;;;13.87;;
9972;SDS011;5027;53.560;10.062;2022-11-15T03:38:29;16.80;;;15.10;;
9972;SDS011;5027;53.560;10.062;2022-11-15T03:41:25;15.90;;;14.20;;
9972;SDS011;5027;53.560;10.062;2022-11-15T03:44:39;15.70;;;14.20;;
9972;SDS011;5027;53.560;10.062;2022-11-15T03:47:35;16.30;;;14.70;;
9972;SDS011;5027;53.560;10.062;2022-11-15T03:50:24;16.43;;;14.83;;
9972;SDS011;5027;53.560;10.062;2022-11-15T03:53:10;16.63;;;14.93;;
9972;SDS011;5027;53.560;10.062;2022-11-15T03:55:57;15.90;;;14.20;;
9972;SDS011;5027;53.560;10.062;2022-11-15T03:58:42;15.33;;;13.73;;
9972;SDS011;5027;53.560;10.062;2022-11-15T04:01:27;16.57;;;14.00;;
9972;SDS011;5027;53.560;10.062;2022-11-15T04:04:13;16.13;;;14.53;;
9972;SDS011;5027;53.560;10.062;2022-11-15T04:06:58;15.47;;;13.97;;
9972;SDS011;5027;53.560;10.062;2022-11-15T04:09:43;17.97;;;14.60;;
9972;SDS011;5027;53.560;10.062;2022-11-15T04:12:46;15.63;;;14.07;;
9972;SDS011;5027;53.560;10.062;2022-11-15T04:15:32;18.20;;;13.63;;
9972;SDS011;5027;53.560;10.062;2022-11-15T04:18:18;17.77;;;14.63;;
9972;SDS011;5027;53.560;10.062;2022-11-15T04:21:03;15.83;;;14.27;;
9972;SDS011;5027;53.560;10.062;2022-11-15T04:24:07;17.77;;;14.57;;
9972;SDS011;5027;53.560;10.062;2022-11-15T04:26:52;14.47;;;13.07;;
9972;SDS011;5027;53.560;10.062;2022-11-15T04:29:38;15.23;;;13.73;;
9972;SDS011;5027;53.560;10.062;2022-11-15T04:32:23;15.77;;;14.17;;
9972;SDS011;5027;53.560;10.062;2022-11-15T04:35:08;17.67;;;14.67;;
9972;SDS011;5027;53.560;10.062;2022-11-15T04:37:56;13.50;;;12.20;;
9972;SDS011;5027;53.560;10.062;2022-11-15T04:40:42;15.07;;;13.47;;
9972;SDS011;5027;53.560;10.062;2022-11-15T04:43:28;15.17;;;13.67;;
9972;SDS011;5027;53.560;10.062;2022-11-15T04:46:14;15.30;;;13.70;;
9972;SDS011;5027;53.560;10.062;2022-11-15T04:48:59;15.07;;;13.57;;
9972;SDS011;5027;53.560;10.062;2022-11-15T04:51:44;15.20;;;13.60;;
9972;SDS011;5027;53.560;10.062;2022-11-15T04:54:30;16.07;;;14.37;;
9972;SDS011;5027;53.560;10.062;2022-11-15T04:57:15;16.87;;;13.50;;
9972;SDS011;5027;53.560;10.062;2022-11-15T05:00:02;14.17;;;12.73;;
9972;SDS011;5027;53.560;10.062;2022-11-15T05:02:49;15.20;;;13.70;;
9972;SDS011;5027;53.560;10.062;2022-11-15T05:05:53;17.67;;;14.83;;
9972;SDS011;5027;53.560;10.062;2022-11-15T05:08:39;16.33;;;14.27;;
9972;SDS011;5027;53.560;10.062;2022-11-15T05:11:24;14.33;;;12.93;;
9972;SDS011;5027;53.560;10.062;2022-11-15T05:14:09;14.93;;;13.53;;
9972;SDS011;5027;53.560;10.062;2022-11-15T05:16:55;13.87;;;12.57;;
9972;SDS011;5027;53.560;10.062;2022-11-15T05:22:47;13.80;;;12.50;;
9972;SDS011;5027;53.560;10.062;2022-11-15T05:25:32;14.83;;;12.67;;
9972;SDS011;5027;53.560;10.062;2022-11-15T05:28:18;12.73;;;11.53;;
9972;SDS011;5027;53.560;10.062;2022-11-15T05:31:04;14.20;;;12.70;;
9972;SDS011;5027;53.560;10.062;2022-11-15T05:33:51;15.83;;;12.70;;
9972;SDS011;5027;53.560;10.062;2022-11-15T05:36:38;15.07;;;12.50;;
9972;SDS011;5027;53.560;10.062;2022-11-15T05:39:26;12.93;;;11.67;;
9972;SDS011;5027;53.560;10.062;2022-11-15T05:42:15;12.80;;;11.50;;
9972;SDS011;5027;53.560;10.062;2022-11-15T05:45:01;12.77;;;11.47;;
9972;SDS011;5027;53.560;10.062;2022-11-15T05:47:48;13.70;;;11.57;;
9972;SDS011;5027;53.560;10.062;2022-11-15T05:50:35;14.60;;;12.00;;
9972;SDS011;5027;53.560;10.062;2022-11-15T05:53:23;14.13;;;12.83;;
9972;SDS011;5027;53.560;10.062;2022-11-15T05:56:10;15.67;;;12.13;;
9972;SDS011;5027;53.560;10.062;2022-11-15T05:58:56;13.83;;;12.17;;
9972;SDS011;5027;53.560;10.062;2022-11-15T06:01:43;14.53;;;13.03;;
9972;SDS011;5027;53.560;10.062;2022-11-15T06:04:29;15.13;;;13.13;;
9972;SDS011;5027;53.560;10.062;2022-11-15T06:07:14;13.43;;;11.93;;
9972;SDS011;5027;53.560;10.062;2022-11-15T06:10:00;13.67;;;12.30;;
9972;SDS011;5027;53.560;10.062;2022-11-15T06:12:45;12.80;;;11.60;;
9972;SDS011;5027;53.560;10.062;2022-11-15T06:15:31;13.50;;;12.20;;
9972;SDS011;5027;53.560;10.062;2022-11-15T06:18:18;13.60;;;11.70;;
9972;SDS011;5027;53.560;10.062;2022-11-15T06:21:03;13.47;;;12.17;;
9972;SDS011;5027;53.560;10.062;2022-11-15T06:23:49;13.03;;;11.70;;
9972;SDS011;5027;53.560;10.062;2022-11-15T06:26:35;14.30;;;12.03;;
9972;SDS011;5027;53.560;10.062;2022-11-15T06:29:20;12.63;;;11.33;;
9972;SDS011;5027;53.560;10.062;2022-11-15T06:32:05;13.47;;;12.13;;
9972;SDS011;5027;53.560;10.062;2022-11-15T06:34:51;14.50;;;10.90;;
9972;SDS011;5027;53.560;10.062;2022-11-15T06:37:37;14.87;;;11.57;;
9972;SDS011;5027;53.560;10.062;2022-11-15T06:40:22;13.70;;;12.40;;
9972;SDS011;5027;53.560;10.062;2022-11-15T06:43:07;16.07;;;12.73;;
9972;SDS011;5027;53.560;10.062;2022-11-15T06:45:52;13.63;;;12.07;;
9972;SDS011;5027;53.560;10.062;2022-11-15T06:48:38;13.27;;;11.87;;
9972;SDS011;5027;53.560;10.062;2022-11-15T06:51:23;15.67;;;12.17;;
9972;SDS011;5027;53.560;10.062;2022-11-15T06:54:08;14.47;;;12.20;;
9972;SDS011;5027;53.560;10.062;2022-11-15T06:56:54;14.03;;;12.43;;
9972;SDS011;5027;53.560;10.062;2022-11-15T06:59:39;14.30;;;11.90;;
9972;SDS011;5027;53.560;10.062;2022-11-15T07:02:25;14.60;;;12.13;;
9972;SDS011;5027;53.560;10.062;2022-11-15T07:05:10;14.20;;;12.70;;
9972;SDS011;5027;53.560;10.062;2022-11-15T07:07:57;13.77;;;12.37;;
9972;SDS011;5027;53.560;10.062;2022-11-15T07:10:42;14.20;;;12.70;;
9972;SDS011;5027;53.560;10.062;2022-11-15T07:13:28;13.50;;;11.97;;
9972;SDS011;5027;53.560;10.062;2022-11-15T07:16:18;13.67;;;12.27;;
9972;SDS011;5027;53.560;10.062;2022-11-15T07:19:04;12.93;;;11.53;;
9972;SDS011;5027;53.560;10.062;2022-11-15T07:21:49;14.67;;;12.50;;
9972;SDS011;5027;53.560;10.062;2022-11-15T07:24:34;13.77;;;11.93;;
9972;SDS011;5027;53.560;10.062;2022-11-15T07:27:19;13.17;;;11.70;;
9972;SDS011;5027;53.560;10.062;2022-11-15T07:30:05;13.63;;;12.33;;
9972;SDS011;5027;53.560;10.062;2022-11-15T07:32:55;17.33;;;12.13;;
9972;SDS011;5027;53.560;10.062;2022-11-15T07:35:41;12.97;;;11.67;;
9972;SDS011;5027;53.560;10.062;2022-11-15T07:38:27;13.77;;;12.37;;
9972;SDS011;5027;53.560;10.062;2022-11-15T07:41:13;14.10;;;12.57;;
9972;SDS011;5027;53.560;10.062;2022-11-15T07:43:59;14.17;;;12.13;;
9972;SDS011;5027;53.560;10.062;2022-11-15T07:46:44;15.03;;;12.20;;
9972;SDS011;5027;53.560;10.062;2022-11-15T07:49:30;14.57;;;12.33;;
9972;SDS011;5027;53.560;10.062;2022-11-15T07:52:15;13.93;;;12.47;;
9972;SDS011;5027;53.560;10.062;2022-11-15T07:55:00;13.43;;;12.03;;
9972;SDS011;5027;53.560;10.062;2022-11-15T07:57:46;13.17;;;11.87;;
9972;SDS011;5027;53.560;10.062;2022-11-15T08:00:31;12.90;;;11.53;;
9972;SDS011;5027;53.560;10.062;2022-11-15T08:03:17;13.73;;;12.33;;
9972;SDS011;5027;53.560;10.062;2022-11-15T08:06:02;13.90;;;11.80;;
9972;SDS011;5027;53.560;10.062;2022-11-15T08:08:48;13.67;;;11.83;;
9972;SDS011;5027;53.560;10.062;2022-11-15T08:11:33;15.53;;;11.83;;
9972;SDS011;5027;53.560;10.062;2022-11-15T08:14:19;13.20;;;11.90;;
9972;SDS011;5027;53.560;10.062;2022-11-15T08:17:06;12.80;;;11.37;;
9972;SDS011;5027;53.560;10.062;2022-11-15T08:19:52;14.30;;;11.73;;
9972;SDS011;5027;53.560;10.062;2022-11-15T08:22:37;13.23;;;11.93;;
9972;SDS011;5027;53.560;10.062;2022-11-15T08:25:23;14.60;;;12.57;;
9972;SDS011;5027;53.560;10.062;2022-11-15T08:28:11;13.73;;;12.23;;
9972;SDS011;5027;53.560;10.062;2022-11-15T08:30:56;14.00;;;12.60;;
9972;SDS011;5027;53.560;10.062;2022-11-15T08:33:42;13.80;;;12.37;;
9972;SDS011;5027;53.560;10.062;2022-11-15T08:36:27;13.73;;;12.30;;
9972;SDS011;5027;53.560;10.062;2022-11-15T08:39:25;16.33;;;12.13;;
9972;SDS011;5027;53.560;10.062;2022-11-15T08:42:10;14.67;;;12.57;;
9972;SDS011;5027;53.560;10.062;2022-11-15T08:45:03;16.43;;;12.80;;
9972;SDS011;5027;53.560;10.062;2022-11-15T08:47:48;14.17;;;12.70;;
9972;SDS011;5027;53.560;10.062;2022-11-15T08:50:38;13.60;;;12.17;;
9972;SDS011;5027;53.560;10.062;2022-11-15T08:53:23;16.93;;;11.67;;
9972;SDS011;5027;53.560;10.062;2022-11-15T08:56:09;13.27;;;11.93;;
9972;SDS011;5027;53.560;10.062;2022-11-15T08:58:56;13.73;;;11.83;;
9972;SDS011;5027;53.560;10.062;2022-11-15T09:01:41;13.93;;;12.53;;
9972;SDS011;5027;53.560;10.062;2022-11-15T09:04:27;14.63;;;12.47;;
9972;SDS011;5027;53.560;10.062;2022-11-15T09:07:12;13.20;;;11.80;;
9972;SDS011;5027;53.560;10.062;2022-11-15T09:09:58;13.77;;;11.83;;
9972;SDS011;5027;53.560;10.062;2022-11-15T09:12:43;17.53;;;13.27;;
9972;SDS011;5027;53.560;10.062;2022-11-15T09:15:28;13.53;;;11.73;;
9972;SDS011;5027;53.560;10.062;2022-11-15T09:18:13;13.53;;;12.13;;
9972;SDS011;5027;53.560;10.062;2022-11-15T09:20:59;13.80;;;12.37;;
9972;SDS011;5027;53.560;10.062;2022-11-15T09:23:49;14.50;;;12.33;;
9972;SDS011;5027;53.560;10.062;2022-11-15T09:26:35;14.07;;;12.67;;
9972;SDS011;5027;53.560;10.062;2022-11-15T09:29:21;13.20;;;11.90;;
9972;SDS011;5027;53.560;10.062;2022-11-15T09:32:06;13.90;;;12.50;;
9972;SDS011;5027;53.560;10.062;2022-11-15T09:34:51;14.10;;;12.10;;
9972;SDS011;5027;53.560;10.062;2022-11-15T09:37:37;17.87;;;12.93;;
9972;SDS011;5027;53.560;10.062;2022-11-15T09:40:22;16.57;;;12.90;;
9972;SDS011;5027;53.560;10.062;2022-11-15T09:49:39;14.13;;;12.60;;
9972;SDS011;5027;53.560;10.062;2022-11-15T09:52:23;14.83;;;12.40;;
9972;SDS011;5027;53.560;10.062;2022-11-15T09:54:51;12.87;;;11.67;;
9972;SDS011;5027;53.560;10.062;2022-11-15T09:57:30;14.93;;;12.77;;
9972;SDS011;5027;53.560;10.062;2022-11-15T10:03:26;13.63;;;12.23;;
9972;SDS011;5027;53.560;10.062;2022-11-15T10:05:59;13.07;;;11.77;;
9972;SDS011;5027;53.560;10.062;2022-11-15T10:11:23;13.63;;;11.10;;
9972;SDS011;5027;53.560;10.062;2022-11-15T10:14:09;11.17;;;10.00;;
9972;SDS011;5027;53.560;10.062;2022-11-15T10:16:44;11.30;;;10.10;;
9972;SDS011;5027;53.560;10.062;2022-11-15T10:19:26;10.83;;;9.73;;
9972;SDS011;5027;53.560;10.062;2022-11-15T10:25:16;13.20;;;9.97;;
9972;SDS011;5027;53.560;10.062;2022-11-15T10:28:03;13.17;;;9.77;;
9972;SDS011;5027;53.560;10.062;2022-11-15T10:30:40;13.33;;;9.53;;
9972;SDS011;5027;53.560;10.062;2022-11-15T10:41:20;11.97;;;9.63;;
9972;SDS011;5027;53.560;10.062;2022-11-15T10:46:35;11.70;;;8.50;;
9972;SDS011;5027;53.560;10.062;2022-11-15T10:49:14;13.37;;;9.03;;
9972;SDS011;5027;53.560;10.062;2022-11-15T10:51:49;11.37;;;8.70;;
9972;SDS011;5027;53.560;10.062;2022-11-15T10:54:28;11.07;;;9.07;;
9972;SDS011;5027;53.560;10.062;2022-11-15T10:57:00;10.57;;;9.43;;
9972;SDS011;5027;53.560;10.062;2022-11-15T10:59:33;11.53;;;9.40;;
9972;SDS011;5027;53.560;10.062;2022-11-15T11:05:04;12.33;;;9.40;;
9972;SDS011;5027;53.560;10.062;2022-11-15T11:08:24;10.77;;;9.00;;
9972;SDS011;5027;53.560;10.062;2022-11-15T11:10:52;11.07;;;9.13;;
9972;SDS011;5027;53.560;10.062;2022-11-15T11:13:29;10.10;;;8.93;;
9972;SDS011;5027;53.560;10.062;2022-11-15T11:18:38;11.70;;;9.60;;
9972;SDS011;5027;53.560;10.062;2022-11-15T11:21:34;10.87;;;9.50;;
9972;SDS011;5027;53.560;10.062;2022-11-15T11:24:21;11.83;;;9.20;;
9972;SDS011;5027;53.560;10.062;2022-11-15T11:32:28;12.20;;;8.90;;
9972;SDS011;5027;53.560;10.062;2022-11-15T11:40:43;10.43;;;9.17;;
9972;SDS011;5027;53.560;10.062;2022-11-15T11:43:32;8.73;;;7.87;;
9972;SDS011;5027;53.560;10.062;2022-11-15T11:46:25;10.20;;;8.80;;
9972;SDS011;5027;53.560;10.062;2022-11-15T11:49:14;9.93;;;8.93;;
9972;SDS011;5027;53.560;10.062;2022-11-15T11:51:47;12.00;;;8.77;;
9972;SDS011;5027;53.560;10.062;2022-11-15T12:00:03;10.10;;;9.07;;
9972;SDS011;5027;53.560;10.062;2022-11-15T12:02:39;12.20;;;9.60;;
9972;SDS011;5027;53.560;10.062;2022-11-15T12:05:18;9.83;;;8.37;;
9972;SDS011;5027;53.560;10.062;2022-11-15T12:07:54;11.30;;;9.23;;
9972;SDS011;5027;53.560;10.062;2022-11-15T12:10:29;10.60;;;9.20;;
9972;SDS011;5027;53.560;10.062;2022-11-15T12:13:07;9.90;;;8.90;;
9972;SDS011;5027;53.560;10.062;2022-11-15T12:15:51;10.53;;;8.63;;
9972;SDS011;5027;53.560;10.062;2022-11-15T12:18:21;9.30;;;8.27;;
9972;SDS011;5027;53.560;10.062;2022-11-15T12:20:51;11.93;;;9.37;;
9972;SDS011;5027;53.560;10.062;2022-11-15T12:23:31;10.70;;;8.63;;
9972;SDS011;5027;53.560;10.062;2022-11-15T12:26:08;9.77;;;8.70;;
9972;SDS011;5027;53.560;10.062;2022-11-15T12:28:42;11.03;;;8.87;;
9972;SDS011;5027;53.560;10.062;2022-11-15T12:31:43;10.10;;;9.10;;
9972;SDS011;5027;53.560;10.062;2022-11-15T12:36:48;10.07;;;9.07;;
9972;SDS011;5027;53.560;10.062;2022-11-15T12:39:16;9.93;;;8.70;;
9972;SDS011;5027;53.560;10.062;2022-11-15T12:46:59;10.77;;;8.47;;
9972;SDS011;5027;53.560;10.062;2022-11-15T12:59:47;10.30;;;8.43;;
9972;SDS011;5027;53.560;10.062;2022-11-15T13:02:25;13.17;;;8.77;;
9972;SDS011;5027;53.560;10.062;2022-11-15T13:17:40;11.60;;;10.07;;
9972;SDS011;5027;53.560;10.062;2022-11-15T13:22:49;13.77;;;10.07;;
9972;SDS011;5027;53.560;10.062;2022-11-15T13:28:10;11.90;;;9.50;;
9972;SDS011;5027;53.560;10.062;2022-11-15T13:31:02;12.07;;;9.20;;
9972;SDS011;5027;53.560;10.062;2022-11-15T13:33:33;9.80;;;8.80;;
9972;SDS011;5027;53.560;10.062;2022-11-15T13:36:03;10.37;;;8.50;;
9972;SDS011;5027;53.560;10.062;2022-11-15T13:38:36;10.90;;;9.17;;
9972;SDS011;5027;53.560;10.062;2022-11-15T13:41:44;10.27;;;9.27;;
9972;SDS011;5027;53.560;10.062;2022-11-15T13:43:59;11.40;;;8.90;;
9972;SDS011;5027;53.560;10.062;2022-11-15T13:46:28;11.50;;;9.27;;
9972;SDS011;5027;53.560;10.062;2022-11-15T13:48:57;10.80;;;8.97;;
9972;SDS011;5027;53.560;10.062;2022-11-15T13:54:01;12.73;;;9.70;;
9972;SDS011;5027;53.560;10.062;2022-11-15T13:56:32;27.33;;;11.67;;
9972;SDS011;5027;53.560;10.062;2022-11-15T13:59:01;9.47;;;8.23;;
9972;SDS011;5027;53.560;10.062;2022-11-15T14:01:35;10.20;;;9.00;;
9972;SDS011;5027;53.560;10.062;2022-11-15T14:04:02;9.40;;;8.23;;
9972;SDS011;5027;53.560;10.062;2022-11-15T14:06:29;12.00;;;8.87;;
9972;SDS011;5027;53.560;10.062;2022-11-15T14:11:26;10.33;;;8.57;;
9972;SDS011;5027;53.560;10.062;2022-11-15T14:16:38;11.17;;;8.60;;
9972;SDS011;5027;53.560;10.062;2022-11-15T14:19:09;11.97;;;8.80;;
9972;SDS011;5027;53.560;10.062;2022-11-15T14:22:07;16.00;;;8.87;;
9972;SDS011;5027;53.560;10.062;2022-11-15T14:24:38;10.50;;;9.27;;
9972;SDS011;5027;53.560;10.062;2022-11-15T14:27:25;13.13;;;8.90;;
9972;SDS011;5027;53.560;10.062;2022-11-15T14:29:53;9.50;;;8.40;;
9972;SDS011;5027;53.560;10.062;2022-11-15T14:32:27;8.93;;;8.07;;
9972;SDS011;5027;53.560;10.062;2022-11-15T14:34:59;8.93;;;8.03;;
9972;SDS011;5027;53.560;10.062;2022-11-15T14:37:28;11.00;;;8.10;;
9972;SDS011;5027;53.560;10.062;2022-11-15T14:40:03;10.57;;;9.17;;
9972;SDS011;5027;53.560;10.062;2022-11-15T14:42:31;11.00;;;9.70;;
9972;SDS011;5027;53.560;10.062;2022-11-15T14:44:58;9.13;;;8.23;;
9972;SDS011;5027;53.560;10.062;2022-11-15T14:47:25;8.67;;;7.77;;
9972;SDS011;5027;53.560;10.062;2022-11-15T14:49:51;13.30;;;8.23;;
9972;SDS011;5027;53.560;10.062;2022-11-15T14:54:57;9.67;;;8.57;;
9972;SDS011;5027;53.560;10.062;2022-11-15T14:57:25;10.93;;;8.20;;
9972;SDS011;5027;53.560;10.062;2022-11-15T14:59:52;9.43;;;8.50;;
9972;SDS011;5027;53.560;10.062;2022-11-15T15:02:23;10.07;;;8.17;;
9972;SDS011;5027;53.560;10.062;2022-11-15T15:04:51;12.53;;;8.53;;
9972;SDS011;5027;53.560;10.062;2022-11-15T15:07:18;8.97;;;8.07;;
9972;SDS011;5027;53.560;10.062;2022-11-15T15:09:47;17.70;;;8.03;;
9972;SDS011;5027;53.560;10.062;2022-11-15T15:12:17;12.90;;;8.63;;
9972;SDS011;5027;53.560;10.062;2022-11-15T15:14:46;13.07;;;9.13;;
9972;SDS011;5027;53.560;10.062;2022-11-15T15:17:14;10.47;;;9.27;;
9972;SDS011;5027;53.560;10.062;2022-11-15T15:19:41;9.90;;;8.90;;
9972;SDS011;5027;53.560;10.062;2022-11-15T15:22:12;9.83;;;8.83;;
9972;SDS011;5027;53.560;10.062;2022-11-15T15:24:42;9.43;;;8.07;;
9972;SDS011;5027;53.560;10.062;2022-11-15T15:27:12;9.60;;;8.60;;
9972;SDS011;5027;53.560;10.062;2022-11-15T15:29:39;11.43;;;8.30;;
9972;SDS011;5027;53.560;10.062;2022-11-15T15:32:06;14.00;;;10.90;;
9972;SDS011;5027;53.560;10.062;2022-11-15T15:34:33;12.53;;;9.80;;
9972;SDS011;5027;53.560;10.062;2022-11-15T15:37:06;11.97;;;9.50;;
9972;SDS011;5027;53.560;10.062;2022-11-15T15:39:34;10.83;;;8.70;;
9972;SDS011;5027;53.560;10.062;2022-11-15T15:42:01;9.73;;;8.27;;
9972;SDS011;5027;53.560;10.062;2022-11-15T15:44:27;9.73;;;8.33;;
9972;SDS011;5027;53.560;10.062;2022-11-15T15:46:54;10.53;;;8.37;;
9972;SDS011;5027;53.560;10.062;2022-11-15T15:49:21;9.60;;;8.70;;
9972;SDS011;5027;53.560;10.062;2022-11-15T15:51:47;12.53;;;9.70;;
9972;SDS011;5027;53.560;10.062;2022-11-15T15:54:14;10.67;;;9.57;;
9972;SDS011;5027;53.560;10.062;2022-11-15T15:56:41;11.43;;;8.13;;
9972;SDS011;5027;53.560;10.062;2022-11-15T15:59:07;10.23;;;9.13;;
9972;SDS011;5027;53.560;10.062;2022-11-15T16:01:34;9.30;;;8.40;;
9972;SDS011;5027;53.560;10.062;2022-11-15T16:04:01;11.07;;;8.37;;
9972;SDS011;5027;53.560;10.062;2022-11-15T16:06:37;9.67;;;8.53;;
9972;SDS011;5027;53.560;10.062;2022-11-15T16:09:05;8.80;;;8.00;;
9972;SDS011;5027;53.560;10.062;2022-11-15T16:11:41;12.53;;;11.13;;
9972;SDS011;5027;53.560;10.062;2022-11-15T16:14:08;12.43;;;10.13;;
9972;SDS011;5027;53.560;10.062;2022-11-15T16:16:35;10.33;;;9.23;;
9972;SDS011;5027;53.560;10.062;2022-11-15T16:19:02;10.77;;;9.10;;
9972;SDS011;5027;53.560;10.062;2022-11-15T16:21:30;9.33;;;8.43;;
9972;SDS011;5027;53.560;10.062;2022-11-15T16:23:56;10.77;;;8.80;;
9972;SDS011;5027;53.560;10.062;2022-11-15T16:26:24;9.93;;;8.87;;
9972;SDS011;5027;53.560;10.062;2022-11-15T16:28:52;9.37;;;8.27;;
9972;SDS011;5027;53.560;10.062;2022-11-15T16:31:19;10.40;;;9.07;;
9972;SDS011;5027;53.560;10.062;2022-11-15T16:33:48;9.73;;;8.60;;
9972;SDS011;5027;53.560;10.062;2022-11-15T16:36:25;10.20;;;7.97;;
9972;SDS011;5027;53.560;10.062;2022-11-15T16:38:56;10.13;;;8.10;;
9972;SDS011;5027;53.560;10.062;2022-11-15T16:41:23;12.47;;;9.10;;
9972;SDS011;5027;53.560;10.062;2022-11-15T16:43:50;9.47;;;8.53;;
9972;SDS011;5027;53.560;10.062;2022-11-15T16:46:18;9.73;;;8.63;;
9972;SDS011;5027;53.560;10.062;2022-11-15T16:48:50;10.40;;;9.33;;
9972;SDS011;5027;53.560;10.062;2022-11-15T16:51:17;13.00;;;11.70;;
9972;SDS011;5027;53.560;10.062;2022-11-15T16:53:44;10.97;;;8.70;;
9972;SDS011;5027;53.560;10.062;2022-11-15T16:56:18;9.80;;;8.90;;
9972;SDS011;5027;53.560;10.062;2022-11-15T16:58:53;11.93;;;9.03;;
9972;SDS011;5027;53.560;10.062;2022-11-15T17:01:23;10.47;;;8.87;;
9972;SDS011;5027;53.560;10.062;2022-11-15T17:03:52;11.40;;;8.83;;
9972;SDS011;5027;53.560;10.062;2022-11-15T17:06:19;9.27;;;8.37;;
9972;SDS011;5027;53.560;10.062;2022-11-15T17:08:46;15.03;;;9.07;;
9972;SDS011;5027;53.560;10.062;2022-11-15T17:11:14;9.47;;;8.40;;
9972;SDS011;5027;53.560;10.062;2022-11-15T17:13:42;10.03;;;8.73;;
9972;SDS011;5027;53.560;10.062;2022-11-15T17:16:12;10.23;;;8.77;;
9972;SDS011;5027;53.560;10.062;2022-11-15T17:18:40;13.20;;;10.93;;
9972;SDS011;5027;53.560;10.062;2022-11-15T17:21:11;10.33;;;8.77;;
9972;SDS011;5027;53.560;10.062;2022-11-15T17:23:40;12.13;;;8.77;;
9972;SDS011;5027;53.560;10.062;2022-11-15T17:26:07;10.50;;;9.40;;
9972;SDS011;5027;53.560;10.062;2022-11-15T17:28:55;14.17;;;10.20;;
9972;SDS011;5027;53.560;10.062;2022-11-15T17:31:22;10.87;;;9.77;;
9972;SDS011;5027;53.560;10.062;2022-11-15T17:33:50;9.20;;;8.30;;
9972;SDS011;5027;53.560;10.062;2022-11-15T17:36:17;12.63;;;9.30;;
9972;SDS011;5027;53.560;10.062;2022-11-15T17:38:44;10.00;;;8.47;;
9972;SDS011;5027;53.560;10.062;2022-11-15T17:41:15;9.77;;;8.80;;
9972;SDS011;5027;53.560;10.062;2022-11-15T17:43:42;10.43;;;9.33;;
9972;SDS011;5027;53.560;10.062;2022-11-15T17:46:13;9.70;;;8.80;;
9972;SDS011;5027;53.560;10.062;2022-11-15T17:48:44;10.00;;;8.67;;
9972;SDS011;5027;53.560;10.062;2022-11-15T17:51:13;11.23;;;10.00;;
9972;SDS011;5027;53.560;10.062;2022-11-15T17:53:42;12.70;;;11.40;;
9972;SDS011;5027;53.560;10.062;2022-11-15T17:56:17;10.80;;;9.10;;